Port Graham, Alaska
Current Conditions -  °F | °C
As of 3:53 PM on Tuesday 27 Jan 2015 (Local Time) from PAHO Reporting Station
Overcast Overcast  
Wind Chill: 22°   Ceiling: 6000
Heat Index: 28°   Visibility: 10mi
Dew Point: 21°   Wind: 6mph
Humidity: 75%   Direction: 60°ENE
Pressure: 29.92"   Gusts: NA
Location:  59.7153°N, 150.773°W
Report Text: PAHO 280053Z 06005KT 10SM BKN060 OVC110 M02/M06 A2992 RMK AO2 SLP131 T10221061
Loading
Personal Weather Stations






























Interactive Weather Map New forecast layout! Learn more

10-Day Weather Forecast

Advertisements
Track Severe Weather on mobile